sensor_id;sensor_type;location;lat;lon;timestamp;P1;durP1;ratioP1;P2;durP2;ratioP2
76712;SDS011;65640;43.154;25.658;2023-04-06T00:01:36;4.03;;;3.58;;
76712;SDS011;65640;43.154;25.658;2023-04-06T00:04:01;5.18;;;4.70;;
76712;SDS011;65640;43.154;25.658;2023-04-06T00:06:27;4.35;;;3.78;;
76712;SDS011;65640;43.154;25.658;2023-04-06T00:08:52;4.10;;;3.75;;
76712;SDS011;65640;43.154;25.658;2023-04-06T00:11:18;4.65;;;4.25;;
76712;SDS011;65640;43.154;25.658;2023-04-06T00:13:44;5.35;;;4.63;;
76712;SDS011;65640;43.154;25.658;2023-04-06T00:16:10;4.70;;;3.97;;
76712;SDS011;65640;43.154;25.658;2023-04-06T00:18:35;5.10;;;3.92;;
76712;SDS011;65640;43.154;25.658;2023-04-06T00:21:00;4.43;;;4.03;;
76712;SDS011;65640;43.154;25.658;2023-04-06T00:23:26;4.95;;;4.20;;
76712;SDS011;65640;43.154;25.658;2023-04-06T00:25:51;4.60;;;4.00;;
76712;SDS011;65640;43.154;25.658;2023-04-06T00:28:17;4.72;;;4.32;;
76712;SDS011;65640;43.154;25.658;2023-04-06T00:30:42;4.43;;;4.13;;
76712;SDS011;65640;43.154;25.658;2023-04-06T00:33:08;4.50;;;4.20;;
76712;SDS011;65640;43.154;25.658;2023-04-06T00:35:33;4.82;;;4.35;;
76712;SDS011;65640;43.154;25.658;2023-04-06T00:37:59;5.88;;;3.92;;
76712;SDS011;65640;43.154;25.658;2023-04-06T00:40:25;4.75;;;4.07;;
76712;SDS011;65640;43.154;25.658;2023-04-06T00:42:53;4.57;;;4.18;;
76712;SDS011;65640;43.154;25.658;2023-04-06T00:45:19;5.60;;;4.57;;
76712;SDS011;65640;43.154;25.658;2023-04-06T00:47:44;4.15;;;3.85;;
76712;SDS011;65640;43.154;25.658;2023-04-06T00:50:10;4.70;;;4.30;;
76712;SDS011;65640;43.154;25.658;2023-04-06T00:52:35;4.28;;;3.88;;
76712;SDS011;65640;43.154;25.658;2023-04-06T00:55:01;4.45;;;4.15;;
76712;SDS011;65640;43.154;25.658;2023-04-06T00:57:27;3.65;;;3.38;;
76712;SDS011;65640;43.154;25.658;2023-04-06T00:59:53;3.97;;;3.67;;
76712;SDS011;65640;43.154;25.658;2023-04-06T01:02:18;5.18;;;3.83;;
76712;SDS011;65640;43.154;25.658;2023-04-06T01:04:44;4.20;;;3.80;;
76712;SDS011;65640;43.154;25.658;2023-04-06T01:07:10;4.13;;;3.80;;
76712;SDS011;65640;43.154;25.658;2023-04-06T01:09:35;4.00;;;3.70;;
76712;SDS011;65640;43.154;25.658;2023-04-06T01:12:00;4.28;;;3.38;;
76712;SDS011;65640;43.154;25.658;2023-04-06T01:14:27;4.30;;;3.65;;
76712;SDS011;65640;43.154;25.658;2023-04-06T01:16:52;5.55;;;3.92;;
76712;SDS011;65640;43.154;25.658;2023-04-06T01:19:18;4.38;;;3.97;;
76712;SDS011;65640;43.154;25.658;2023-04-06T01:21:44;4.53;;;4.18;;
76712;SDS011;65640;43.154;25.658;2023-04-06T01:24:09;6.57;;;4.70;;
76712;SDS011;65640;43.154;25.658;2023-04-06T01:26:35;6.70;;;5.45;;
76712;SDS011;65640;43.154;25.658;2023-04-06T01:29:01;9.38;;;5.53;;
76712;SDS011;65640;43.154;25.658;2023-04-06T01:31:28;6.00;;;4.95;;
76712;SDS011;65640;43.154;25.658;2023-04-06T01:33:53;6.05;;;5.55;;
76712;SDS011;65640;43.154;25.658;2023-04-06T01:36:19;10.45;;;6.35;;
76712;SDS011;65640;43.154;25.658;2023-04-06T01:38:45;6.72;;;5.45;;
76712;SDS011;65640;43.154;25.658;2023-04-06T01:41:11;5.97;;;5.10;;
76712;SDS011;65640;43.154;25.658;2023-04-06T01:43:36;4.97;;;4.47;;
76712;SDS011;65640;43.154;25.658;2023-04-06T01:46:02;9.13;;;5.50;;
76712;SDS011;65640;43.154;25.658;2023-04-06T01:48:28;7.00;;;5.47;;
76712;SDS011;65640;43.154;25.658;2023-04-06T01:50:54;7.80;;;5.82;;
76712;SDS011;65640;43.154;25.658;2023-04-06T01:53:20;5.85;;;5.35;;
76712;SDS011;65640;43.154;25.658;2023-04-06T01:55:46;7.95;;;5.88;;
76712;SDS011;65640;43.154;25.658;2023-04-06T01:58:11;5.93;;;4.70;;
76712;SDS011;65640;43.154;25.658;2023-04-06T02:00:37;6.30;;;5.80;;
76712;SDS011;65640;43.154;25.658;2023-04-06T02:03:03;6.85;;;5.70;;
76712;SDS011;65640;43.154;25.658;2023-04-06T02:05:30;6.25;;;5.70;;
76712;SDS011;65640;43.154;25.658;2023-04-06T02:07:56;7.20;;;5.45;;
76712;SDS011;65640;43.154;25.658;2023-04-06T02:10:22;6.20;;;5.60;;
76712;SDS011;65640;43.154;25.658;2023-04-06T02:12:48;7.30;;;5.85;;
76712;SDS011;65640;43.154;25.658;2023-04-06T02:15:14;6.22;;;5.43;;
76712;SDS011;65640;43.154;25.658;2023-04-06T02:17:40;7.68;;;6.20;;
76712;SDS011;65640;43.154;25.658;2023-04-06T02:20:07;8.50;;;6.50;;
76712;SDS011;65640;43.154;25.658;2023-04-06T02:22:33;6.60;;;5.50;;
76712;SDS011;65640;43.154;25.658;2023-04-06T02:24:59;6.75;;;5.53;;
76712;SDS011;65640;43.154;25.658;2023-04-06T02:27:24;9.48;;;5.35;;
76712;SDS011;65640;43.154;25.658;2023-04-06T02:29:50;8.00;;;6.57;;
76712;SDS011;65640;43.154;25.658;2023-04-06T02:32:15;5.55;;;4.95;;
76712;SDS011;65640;43.154;25.658;2023-04-06T02:34:41;4.53;;;4.13;;
76712;SDS011;65640;43.154;25.658;2023-04-06T02:37:06;7.03;;;5.32;;
76712;SDS011;65640;43.154;25.658;2023-04-06T02:39:32;5.80;;;4.68;;
76712;SDS011;65640;43.154;25.658;2023-04-06T02:41:57;4.13;;;3.80;;
76712;SDS011;65640;43.154;25.658;2023-04-06T02:44:23;4.45;;;4.10;;
76712;SDS011;65640;43.154;25.658;2023-04-06T02:46:48;4.18;;;3.80;;
76712;SDS011;65640;43.154;25.658;2023-04-06T02:49:14;4.70;;;4.28;;
76712;SDS011;65640;43.154;25.658;2023-04-06T02:51:39;4.22;;;3.83;;
76712;SDS011;65640;43.154;25.658;2023-04-06T02:54:05;4.18;;;3.88;;
76712;SDS011;65640;43.154;25.658;2023-04-06T02:56:30;4.50;;;4.07;;
76712;SDS011;65640;43.154;25.658;2023-04-06T02:58:56;4.18;;;3.88;;
76712;SDS011;65640;43.154;25.658;2023-04-06T03:01:21;5.15;;;3.67;;
76712;SDS011;65640;43.154;25.658;2023-04-06T03:03:47;4.20;;;3.78;;
76712;SDS011;65640;43.154;25.658;2023-04-06T03:06:12;4.78;;;4.13;;
76712;SDS011;65640;43.154;25.658;2023-04-06T03:08:37;7.07;;;4.93;;
76712;SDS011;65640;43.154;25.658;2023-04-06T03:11:03;5.25;;;4.78;;
76712;SDS011;65640;43.154;25.658;2023-04-06T03:13:28;6.40;;;4.78;;
76712;SDS011;65640;43.154;25.658;2023-04-06T03:15:54;4.60;;;4.28;;
76712;SDS011;65640;43.154;25.658;2023-04-06T03:18:23;4.90;;;4.45;;
76712;SDS011;65640;43.154;25.658;2023-04-06T03:20:50;6.47;;;4.68;;
76712;SDS011;65640;43.154;25.658;2023-04-06T03:23:18;5.60;;;4.70;;
76712;SDS011;65640;43.154;25.658;2023-04-06T03:28:11;4.13;;;3.72;;
76712;SDS011;65640;43.154;25.658;2023-04-06T03:30:36;4.60;;;4.00;;
76712;SDS011;65640;43.154;25.658;2023-04-06T03:33:01;4.22;;;3.92;;
76712;SDS011;65640;43.154;25.658;2023-04-06T03:35:27;3.70;;;3.40;;
76712;SDS011;65640;43.154;25.658;2023-04-06T03:37:52;4.72;;;4.05;;
76712;SDS011;65640;43.154;25.658;2023-04-06T03:40:18;3.83;;;3.53;;
76712;SDS011;65640;43.154;25.658;2023-04-06T03:42:43;4.75;;;4.13;;
76712;SDS011;65640;43.154;25.658;2023-04-06T03:45:09;4.30;;;3.90;;
76712;SDS011;65640;43.154;25.658;2023-04-06T03:47:34;3.85;;;3.55;;
76712;SDS011;65640;43.154;25.658;2023-04-06T03:50:00;3.95;;;3.63;;
76712;SDS011;65640;43.154;25.658;2023-04-06T03:52:25;3.78;;;3.47;;
76712;SDS011;65640;43.154;25.658;2023-04-06T03:54:51;4.32;;;3.92;;
76712;SDS011;65640;43.154;25.658;2023-04-06T03:57:17;5.65;;;4.30;;
76712;SDS011;65640;43.154;25.658;2023-04-06T03:59:42;4.25;;;3.90;;
76712;SDS011;65640;43.154;25.658;2023-04-06T04:02:08;4.03;;;3.70;;
76712;SDS011;65640;43.154;25.658;2023-04-06T04:04:33;4.65;;;4.25;;
76712;SDS011;65640;43.154;25.658;2023-04-06T04:06:58;4.35;;;3.97;;
76712;SDS011;65640;43.154;25.658;2023-04-06T04:09:24;4.25;;;3.95;;
76712;SDS011;65640;43.154;25.658;2023-04-06T04:11:49;4.40;;;4.00;;
76712;SDS011;65640;43.154;25.658;2023-04-06T04:14:15;4.72;;;4.32;;
76712;SDS011;65640;43.154;25.658;2023-04-06T04:16:40;5.15;;;4.20;;
76712;SDS011;65640;43.154;25.658;2023-04-06T04:19:06;6.38;;;4.57;;
76712;SDS011;65640;43.154;25.658;2023-04-06T04:21:32;5.10;;;4.63;;
76712;SDS011;65640;43.154;25.658;2023-04-06T04:23:57;5.82;;;4.97;;
76712;SDS011;65640;43.154;25.658;2023-04-06T04:26:23;4.60;;;4.20;;
76712;SDS011;65640;43.154;25.658;2023-04-06T04:28:48;6.47;;;4.93;;
76712;SDS011;65640;43.154;25.658;2023-04-06T04:31:14;5.22;;;4.72;;
76712;SDS011;65640;43.154;25.658;2023-04-06T04:33:40;5.43;;;4.97;;
76712;SDS011;65640;43.154;25.658;2023-04-06T04:36:05;5.15;;;4.68;;
76712;SDS011;65640;43.154;25.658;2023-04-06T04:38:31;5.95;;;4.57;;
76712;SDS011;65640;43.154;25.658;2023-04-06T04:40:56;5.57;;;4.90;;
76712;SDS011;65640;43.154;25.658;2023-04-06T04:43:22;5.75;;;5.15;;
76712;SDS011;65640;43.154;25.658;2023-04-06T04:45:47;8.50;;;4.65;;
76712;SDS011;65640;43.154;25.658;2023-04-06T04:48:12;5.53;;;5.03;;
76712;SDS011;65640;43.154;25.658;2023-04-06T04:50:38;7.93;;;4.70;;
76712;SDS011;65640;43.154;25.658;2023-04-06T04:53:03;5.05;;;4.65;;
76712;SDS011;65640;43.154;25.658;2023-04-06T04:57:56;6.35;;;4.35;;
76712;SDS011;65640;43.154;25.658;2023-04-06T05:00:21;6.47;;;5.93;;
76712;SDS011;65640;43.154;25.658;2023-04-06T05:02:47;5.53;;;4.90;;
76712;SDS011;65640;43.154;25.658;2023-04-06T05:05:12;5.22;;;4.72;;
76712;SDS011;65640;43.154;25.658;2023-04-06T05:07:38;5.90;;;4.93;;
76712;SDS011;65640;43.154;25.658;2023-04-06T05:10:03;6.03;;;5.20;;
76712;SDS011;65640;43.154;25.658;2023-04-06T05:12:29;6.40;;;5.10;;
76712;SDS011;65640;43.154;25.658;2023-04-06T05:14:54;5.68;;;4.88;;
76712;SDS011;65640;43.154;25.658;2023-04-06T05:17:20;6.18;;;5.35;;
76712;SDS011;65640;43.154;25.658;2023-04-06T05:19:45;6.40;;;5.35;;
76712;SDS011;65640;43.154;25.658;2023-04-06T05:22:11;5.82;;;5.00;;
76712;SDS011;65640;43.154;25.658;2023-04-06T05:24:39;10.75;;;5.60;;
76712;SDS011;65640;43.154;25.658;2023-04-06T05:27:05;5.38;;;4.85;;
76712;SDS011;65640;43.154;25.658;2023-04-06T05:29:30;6.93;;;4.97;;
76712;SDS011;65640;43.154;25.658;2023-04-06T05:31:56;6.93;;;4.80;;
76712;SDS011;65640;43.154;25.658;2023-04-06T05:34:21;5.47;;;4.72;;
76712;SDS011;65640;43.154;25.658;2023-04-06T05:36:47;6.45;;;5.30;;
76712;SDS011;65640;43.154;25.658;2023-04-06T05:39:12;6.82;;;5.32;;
76712;SDS011;65640;43.154;25.658;2023-04-06T05:41:38;6.20;;;5.70;;
76712;SDS011;65640;43.154;25.658;2023-04-06T05:44:03;5.28;;;4.88;;
76712;SDS011;65640;43.154;25.658;2023-04-06T05:46:29;8.18;;;5.93;;
76712;SDS011;65640;43.154;25.658;2023-04-06T05:48:55;6.22;;;5.10;;
76712;SDS011;65640;43.154;25.658;2023-04-06T05:51:21;4.20;;;3.90;;
76712;SDS011;65640;43.154;25.658;2023-04-06T05:53:46;9.23;;;5.93;;
76712;SDS011;65640;43.154;25.658;2023-04-06T05:56:12;4.60;;;4.13;;
76712;SDS011;65640;43.154;25.658;2023-04-06T05:58:37;5.72;;;4.70;;
76712;SDS011;65640;43.154;25.658;2023-04-06T06:01:02;4.57;;;4.18;;
76712;SDS011;65640;43.154;25.658;2023-04-06T06:03:29;5.55;;;4.90;;
76712;SDS011;65640;43.154;25.658;2023-04-06T06:06:01;5.30;;;4.00;;
76712;SDS011;65640;43.154;25.658;2023-04-06T06:08:28;5.40;;;4.90;;
76712;SDS011;65640;43.154;25.658;2023-04-06T06:10:54;6.43;;;4.78;;
76712;SDS011;65640;43.154;25.658;2023-04-06T06:13:20;5.15;;;4.68;;
76712;SDS011;65640;43.154;25.658;2023-04-06T06:15:46;8.35;;;4.88;;
76712;SDS011;65640;43.154;25.658;2023-04-06T06:18:11;5.18;;;4.75;;
76712;SDS011;65640;43.154;25.658;2023-04-06T06:20:37;6.43;;;5.55;;
76712;SDS011;65640;43.154;25.658;2023-04-06T06:23:02;4.72;;;4.32;;
76712;SDS011;65640;43.154;25.658;2023-04-06T06:25:28;6.63;;;4.70;;
76712;SDS011;65640;43.154;25.658;2023-04-06T06:27:55;5.75;;;5.22;;
76712;SDS011;65640;43.154;25.658;2023-04-06T06:30:21;6.50;;;5.00;;
76712;SDS011;65640;43.154;25.658;2023-04-06T06:32:46;5.85;;;5.25;;
76712;SDS011;65640;43.154;25.658;2023-04-06T06:35:12;4.78;;;4.45;;
76712;SDS011;65640;43.154;25.658;2023-04-06T06:37:37;4.63;;;4.10;;
76712;SDS011;65640;43.154;25.658;2023-04-06T06:40:03;5.85;;;5.35;;
76712;SDS011;65640;43.154;25.658;2023-04-06T06:42:28;9.43;;;5.43;;
76712;SDS011;65640;43.154;25.658;2023-04-06T06:44:54;6.57;;;5.35;;
76712;SDS011;65640;43.154;25.658;2023-04-06T06:47:20;5.75;;;5.25;;
76712;SDS011;65640;43.154;25.658;2023-04-06T06:49:45;5.63;;;4.90;;
76712;SDS011;65640;43.154;25.658;2023-04-06T06:52:10;9.98;;;5.47;;
76712;SDS011;65640;43.154;25.658;2023-04-06T06:54:36;8.35;;;6.07;;
76712;SDS011;65640;43.154;25.658;2023-04-06T06:57:01;10.30;;;7.43;;
76712;SDS011;65640;43.154;25.658;2023-04-06T06:59:27;6.97;;;5.85;;
76712;SDS011;65640;43.154;25.658;2023-04-06T07:01:52;8.30;;;6.38;;
76712;SDS011;65640;43.154;25.658;2023-04-06T07:04:18;6.82;;;5.70;;
76712;SDS011;65640;43.154;25.658;2023-04-06T07:06:43;6.68;;;5.10;;
76712;SDS011;65640;43.154;25.658;2023-04-06T07:09:09;5.70;;;5.10;;
76712;SDS011;65640;43.154;25.658;2023-04-06T07:11:34;6.70;;;5.72;;
76712;SDS011;65640;43.154;25.658;2023-04-06T07:13:59;6.55;;;5.43;;
76712;SDS011;65640;43.154;25.658;2023-04-06T07:16:25;7.55;;;5.18;;
76712;SDS011;65640;43.154;25.658;2023-04-06T07:18:50;7.78;;;5.35;;
76712;SDS011;65640;43.154;25.658;2023-04-06T07:21:16;6.25;;;5.22;;
76712;SDS011;65640;43.154;25.658;2023-04-06T07:23:41;10.45;;;6.88;;
76712;SDS011;65640;43.154;25.658;2023-04-06T07:26:07;13.68;;;6.80;;
76712;SDS011;65640;43.154;25.658;2023-04-06T07:28:32;8.00;;;6.10;;
76712;SDS011;65640;43.154;25.658;2023-04-06T07:30:58;4.07;;;3.75;;
76712;SDS011;65640;43.154;25.658;2023-04-06T07:33:23;5.93;;;5.43;;
76712;SDS011;65640;43.154;25.658;2023-04-06T07:35:49;5.03;;;4.38;;
76712;SDS011;65640;43.154;25.658;2023-04-06T07:38:14;6.57;;;5.88;;
76712;SDS011;65640;43.154;25.658;2023-04-06T07:40:40;13.30;;;6.38;;
76712;SDS011;65640;43.154;25.658;2023-04-06T07:43:05;5.50;;;4.60;;
76712;SDS011;65640;43.154;25.658;2023-04-06T07:45:31;6.78;;;5.45;;
76712;SDS011;65640;43.154;25.658;2023-04-06T07:47:56;9.45;;;6.80;;
76712;SDS011;65640;43.154;25.658;2023-04-06T07:50:22;5.45;;;4.90;;
76712;SDS011;65640;43.154;25.658;2023-04-06T07:52:47;4.45;;;4.05;;
76712;SDS011;65640;43.154;25.658;2023-04-06T07:55:13;5.32;;;4.82;;
76712;SDS011;65640;43.154;25.658;2023-04-06T07:57:39;5.78;;;5.28;;
76712;SDS011;65640;43.154;25.658;2023-04-06T08:00:05;7.53;;;6.53;;
76712;SDS011;65640;43.154;25.658;2023-04-06T08:02:31;5.72;;;5.10;;
76712;SDS011;65640;43.154;25.658;2023-04-06T08:04:57;5.53;;;5.03;;
76712;SDS011;65640;43.154;25.658;2023-04-06T08:07:22;5.22;;;4.68;;
76712;SDS011;65640;43.154;25.658;2023-04-06T08:09:48;7.43;;;5.70;;
76712;SDS011;65640;43.154;25.658;2023-04-06T08:12:13;8.60;;;5.18;;
76712;SDS011;65640;43.154;25.658;2023-04-06T08:14:39;7.75;;;5.45;;
76712;SDS011;65640;43.154;25.658;2023-04-06T08:17:05;4.10;;;3.70;;
76712;SDS011;65640;43.154;25.658;2023-04-06T08:19:30;5.55;;;4.70;;
76712;SDS011;65640;43.154;25.658;2023-04-06T08:21:56;9.85;;;5.30;;
76712;SDS011;65640;43.154;25.658;2023-04-06T08:24:21;6.57;;;5.35;;
76712;SDS011;65640;43.154;25.658;2023-04-06T08:26:46;4.93;;;4.60;;
76712;SDS011;65640;43.154;25.658;2023-04-06T08:29:12;5.50;;;4.85;;
76712;SDS011;65640;43.154;25.658;2023-04-06T08:31:37;5.80;;;4.38;;
76712;SDS011;65640;43.154;25.658;2023-04-06T08:38:56;6.30;;;4.22;;
76712;SDS011;65640;43.154;25.658;2023-04-06T08:41:21;10.20;;;7.50;;
76712;SDS011;65640;43.154;25.658;2023-04-06T08:43:52;6.47;;;4.00;;
76712;SDS011;65640;43.154;25.658;2023-04-06T08:46:28;7.25;;;4.65;;
76712;SDS011;65640;43.154;25.658;2023-04-06T08:48:58;5.05;;;4.55;;
76712;SDS011;65640;43.154;25.658;2023-04-06T08:51:25;6.53;;;3.75;;
76712;SDS011;65640;43.154;25.658;2023-04-06T08:53:54;5.13;;;4.32;;
76712;SDS011;65640;43.154;25.658;2023-04-06T08:56:24;6.05;;;4.63;;
76712;SDS011;65640;43.154;25.658;2023-04-06T08:58:52;5.78;;;4.53;;
76712;SDS011;65640;43.154;25.658;2023-04-06T09:01:23;5.13;;;4.47;;
76712;SDS011;65640;43.154;25.658;2023-04-06T09:03:50;6.43;;;5.80;;
76712;SDS011;65640;43.154;25.658;2023-04-06T09:06:19;5.05;;;4.53;;
76712;SDS011;65640;43.154;25.658;2023-04-06T09:08:46;5.13;;;4.70;;
76712;SDS011;65640;43.154;25.658;2023-04-06T09:11:11;6.85;;;4.72;;
76712;SDS011;65640;43.154;25.658;2023-04-06T09:13:54;4.78;;;4.38;;
76712;SDS011;65640;43.154;25.658;2023-04-06T09:16:21;5.18;;;4.15;;
76712;SDS011;65640;43.154;25.658;2023-04-06T09:18:48;5.70;;;4.93;;
76712;SDS011;65640;43.154;25.658;2023-04-06T09:21:16;6.38;;;5.80;;
76712;SDS011;65640;43.154;25.658;2023-04-06T09:23:43;5.90;;;4.68;;
76712;SDS011;65640;43.154;25.658;2023-04-06T09:26:09;7.32;;;5.35;;
76712;SDS011;65640;43.154;25.658;2023-04-06T09:28:55;8.90;;;4.95;;
76712;SDS011;65640;43.154;25.658;2023-04-06T09:33:49;6.13;;;4.78;;
76712;SDS011;65640;43.154;25.658;2023-04-06T09:36:15;5.13;;;4.63;;
76712;SDS011;65640;43.154;25.658;2023-04-06T09:39:02;7.70;;;4.57;;
76712;SDS011;65640;43.154;25.658;2023-04-06T09:41:34;4.70;;;4.30;;
76712;SDS011;65640;43.154;25.658;2023-04-06T09:46:30;5.43;;;4.60;;
76712;SDS011;65640;43.154;25.658;2023-04-06T09:48:58;6.50;;;5.13;;
76712;SDS011;65640;43.154;25.658;2023-04-06T09:51:25;4.32;;;3.92;;
76712;SDS011;65640;43.154;25.658;2023-04-06T09:53:53;4.68;;;4.28;;
76712;SDS011;65640;43.154;25.658;2023-04-06T09:56:23;5.55;;;4.57;;
76712;SDS011;65640;43.154;25.658;2023-04-06T09:58:53;4.57;;;4.18;;
76712;SDS011;65640;43.154;25.658;2023-04-06T10:01:26;4.40;;;3.97;;
76712;SDS011;65640;43.154;25.658;2023-04-06T10:04:07;6.15;;;4.88;;
76712;SDS011;65640;43.154;25.658;2023-04-06T10:06:42;4.57;;;4.18;;
76712;SDS011;65640;43.154;25.658;2023-04-06T10:09:09;5.65;;;4.25;;
76712;SDS011;65640;43.154;25.658;2023-04-06T10:11:36;6.88;;;5.07;;
76712;SDS011;65640;43.154;25.658;2023-04-06T10:14:02;4.28;;;3.88;;
76712;SDS011;65640;43.154;25.658;2023-04-06T10:16:27;4.30;;;3.65;;
76712;SDS011;65640;43.154;25.658;2023-04-06T10:21:24;4.32;;;3.90;;
76712;SDS011;65640;43.154;25.658;2023-04-06T10:24:01;4.82;;;3.83;;
76712;SDS011;65640;43.154;25.658;2023-04-06T10:26:27;5.57;;;3.90;;
76712;SDS011;65640;43.154;25.658;2023-04-06T10:28:53;6.40;;;3.72;;
76712;SDS011;65640;43.154;25.658;2023-04-06T10:31:26;6.38;;;3.05;;
76712;SDS011;65640;43.154;25.658;2023-04-06T10:33:59;3.63;;;3.33;;
76712;SDS011;65640;43.154;25.658;2023-04-06T10:36:26;4.45;;;4.05;;
76712;SDS011;65640;43.154;25.658;2023-04-06T10:38:57;3.88;;;3.28;;
76712;SDS011;65640;43.154;25.658;2023-04-06T10:41:34;4.55;;;3.38;;
76712;SDS011;65640;43.154;25.658;2023-04-06T10:44:17;4.95;;;3.60;;
76712;SDS011;65640;43.154;25.658;2023-04-06T10:46:52;4.75;;;3.67;;
76712;SDS011;65640;43.154;25.658;2023-04-06T10:49:21;4.55;;;3.50;;
76712;SDS011;65640;43.154;25.658;2023-04-06T10:51:51;4.53;;;3.10;;
76712;SDS011;65640;43.154;25.658;2023-04-06T10:54:23;4.82;;;3.70;;
76712;SDS011;65640;43.154;25.658;2023-04-06T10:56:50;8.75;;;5.03;;
76712;SDS011;65640;43.154;25.658;2023-04-06T10:59:22;4.57;;;3.72;;
76712;SDS011;65640;43.154;25.658;2023-04-06T11:01:49;4.47;;;4.07;;
76712;SDS011;65640;43.154;25.658;2023-04-06T11:04:15;4.70;;;4.03;;
76712;SDS011;65640;43.154;25.658;2023-04-06T11:06:48;4.60;;;4.13;;
76712;SDS011;65640;43.154;25.658;2023-04-06T11:09:24;4.15;;;3.75;;
76712;SDS011;65640;43.154;25.658;2023-04-06T11:11:50;4.13;;;3.80;;
76712;SDS011;65640;43.154;25.658;2023-04-06T11:14:15;4.05;;;3.47;;
76712;SDS011;65640;43.154;25.658;2023-04-06T11:16:41;5.05;;;3.35;;
76712;SDS011;65640;43.154;25.658;2023-04-06T11:19:06;4.80;;;4.22;;
76712;SDS011;65640;43.154;25.658;2023-04-06T11:21:47;5.28;;;3.42;;
76712;SDS011;65640;43.154;25.658;2023-04-06T11:26:50;4.07;;;3.75;;
76712;SDS011;65640;43.154;25.658;2023-04-06T11:29:27;4.60;;;3.90;;
76712;SDS011;65640;43.154;25.658;2023-04-06T11:31:57;3.58;;;3.38;;
76712;SDS011;65640;43.154;25.658;2023-04-06T11:34:23;4.15;;;3.75;;
76712;SDS011;65640;43.154;25.658;2023-04-06T11:37:03;4.35;;;3.40;;
76712;SDS011;65640;43.154;25.658;2023-04-06T11:39:37;4.18;;;3.22;;
76712;SDS011;65640;43.154;25.658;2023-04-06T11:42:05;3.72;;;3.40;;
76712;SDS011;65640;43.154;25.658;2023-04-06T11:51:51;6.00;;;3.50;;
76712;SDS011;65640;43.154;25.658;2023-04-06T11:54:17;3.53;;;3.22;;
76712;SDS011;65640;43.154;25.658;2023-04-06T11:56:45;3.92;;;3.20;;
76712;SDS011;65640;43.154;25.658;2023-04-06T11:59:11;4.45;;;3.65;;
76712;SDS011;65640;43.154;25.658;2023-04-06T12:01:44;4.93;;;3.50;;
76712;SDS011;65640;43.154;25.658;2023-04-06T12:04:10;3.70;;;3.38;;
76712;SDS011;65640;43.154;25.658;2023-04-06T12:06:36;4.30;;;3.20;;
76712;SDS011;65640;43.154;25.658;2023-04-06T12:09:01;3.70;;;3.38;;
76712;SDS011;65640;43.154;25.658;2023-04-06T12:11:27;3.53;;;3.22;;
76712;SDS011;65640;43.154;25.658;2023-04-06T12:13:52;4.38;;;3.70;;
76712;SDS011;65640;43.154;25.658;2023-04-06T12:16:18;4.88;;;4.45;;
76712;SDS011;65640;43.154;25.658;2023-04-06T12:18:44;3.63;;;3.33;;
76712;SDS011;65640;43.154;25.658;2023-04-06T12:21:10;3.40;;;3.10;;
76712;SDS011;65640;43.154;25.658;2023-04-06T12:23:35;4.47;;;3.45;;
76712;SDS011;65640;43.154;25.658;2023-04-06T12:26:01;3.75;;;2.92;;
76712;SDS011;65640;43.154;25.658;2023-04-06T12:28:27;3.53;;;3.03;;
76712;SDS011;65640;43.154;25.658;2023-04-06T12:30:53;6.82;;;3.33;;
76712;SDS011;65640;43.154;25.658;2023-04-06T12:33:19;3.72;;;3.42;;
76712;SDS011;65640;43.154;25.658;2023-04-06T12:35:45;4.70;;;3.15;;
76712;SDS011;65640;43.154;25.658;2023-04-06T12:38:11;5.28;;;3.03;;
76712;SDS011;65640;43.154;25.658;2023-04-06T12:40:37;4.00;;;3.58;;
76712;SDS011;65640;43.154;25.658;2023-04-06T12:43:03;4.10;;;3.55;;
76712;SDS011;65640;43.154;25.658;2023-04-06T12:45:30;3.80;;;3.50;;
76712;SDS011;65640;43.154;25.658;2023-04-06T12:50:22;2.95;;;2.42;;
76712;SDS011;65640;43.154;25.658;2023-04-06T12:52:47;2.90;;;2.65;;
76712;SDS011;65640;43.154;25.658;2023-04-06T12:55:13;2.90;;;2.70;;
76712;SDS011;65640;43.154;25.658;2023-04-06T12:57:38;4.13;;;3.25;;
76712;SDS011;65640;43.154;25.658;2023-04-06T13:00:04;3.17;;;2.58;;
76712;SDS011;65640;43.154;25.658;2023-04-06T13:02:30;3.58;;;2.97;;
76712;SDS011;65640;43.154;25.658;2023-04-06T13:04:56;3.15;;;2.80;;
76712;SDS011;65640;43.154;25.658;2023-04-06T13:07:21;2.63;;;2.42;;
76712;SDS011;65640;43.154;25.658;2023-04-06T13:09:47;5.70;;;2.78;;
76712;SDS011;65640;43.154;25.658;2023-04-06T13:12:14;4.07;;;2.70;;
76712;SDS011;65640;43.154;25.658;2023-04-06T13:14:40;2.83;;;2.63;;
76712;SDS011;65640;43.154;25.658;2023-04-06T13:17:06;5.82;;;2.90;;
76712;SDS011;65640;43.154;25.658;2023-04-06T13:19:31;3.25;;;2.80;;
76712;SDS011;65640;43.154;25.658;2023-04-06T13:21:57;3.47;;;2.50;;
76712;SDS011;65640;43.154;25.658;2023-04-06T13:24:23;3.40;;;3.10;;
76712;SDS011;65640;43.154;25.658;2023-04-06T13:26:48;3.72;;;3.30;;
76712;SDS011;65640;43.154;25.658;2023-04-06T13:29:14;3.40;;;2.90;;
76712;SDS011;65640;43.154;25.658;2023-04-06T13:31:40;6.55;;;3.63;;
76712;SDS011;65640;43.154;25.658;2023-04-06T13:34:05;5.18;;;3.22;;
76712;SDS011;65640;43.154;25.658;2023-04-06T13:36:31;2.85;;;2.42;;
76712;SDS011;65640;43.154;25.658;2023-04-06T13:38:57;3.08;;;2.70;;
76712;SDS011;65640;43.154;25.658;2023-04-06T13:41:25;4.07;;;2.45;;
76712;SDS011;65640;43.154;25.658;2023-04-06T13:43:51;3.13;;;2.55;;
76712;SDS011;65640;43.154;25.658;2023-04-06T13:46:17;2.95;;;2.63;;
76712;SDS011;65640;43.154;25.658;2023-04-06T13:48:43;2.72;;;2.40;;
76712;SDS011;65640;43.154;25.658;2023-04-06T13:51:12;3.63;;;2.03;;
76712;SDS011;65640;43.154;25.658;2023-04-06T13:53:38;2.88;;;2.00;;
76712;SDS011;65640;43.154;25.658;2023-04-06T13:56:04;2.85;;;2.58;;
76712;SDS011;65640;43.154;25.658;2023-04-06T13:58:30;4.47;;;2.45;;
76712;SDS011;65640;43.154;25.658;2023-04-06T14:01:01;2.22;;;2.03;;
76712;SDS011;65640;43.154;25.658;2023-04-06T14:03:28;5.63;;;3.03;;
76712;SDS011;65640;43.154;25.658;2023-04-06T14:05:53;5.30;;;2.95;;
76712;SDS011;65640;43.154;25.658;2023-04-06T14:08:18;3.75;;;3.45;;
76712;SDS011;65640;43.154;25.658;2023-04-06T14:10:44;3.45;;;3.15;;
76712;SDS011;65640;43.154;25.658;2023-04-06T14:13:09;2.60;;;2.20;;
76712;SDS011;65640;43.154;25.658;2023-04-06T14:15:35;2.42;;;2.22;;
76712;SDS011;65640;43.154;25.658;2023-04-06T14:18:01;3.10;;;2.80;;
76712;SDS011;65640;43.154;25.658;2023-04-06T14:20:26;3.20;;;2.90;;
76712;SDS011;65640;43.154;25.658;2023-04-06T14:22:52;2.47;;;2.28;;
76712;SDS011;65640;43.154;25.658;2023-04-06T14:25:19;4.47;;;3.78;;
76712;SDS011;65640;43.154;25.658;2023-04-06T14:27:45;3.53;;;2.50;;
76712;SDS011;65640;43.154;25.658;2023-04-06T14:30:10;4.43;;;2.20;;
76712;SDS011;65640;43.154;25.658;2023-04-06T14:32:36;3.08;;;2.17;;
76712;SDS011;65640;43.154;25.658;2023-04-06T14:35:02;4.13;;;2.60;;
76712;SDS011;65640;43.154;25.658;2023-04-06T14:37:28;4.50;;;3.88;;
76712;SDS011;65640;43.154;25.658;2023-04-06T14:39:54;3.10;;;2.80;;
76712;SDS011;65640;43.154;25.658;2023-04-06T14:42:20;2.90;;;2.70;;
76712;SDS011;65640;43.154;25.658;2023-04-06T14:44:45;3.33;;;2.50;;
76712;SDS011;65640;43.154;25.658;2023-04-06T14:47:11;2.63;;;2.33;;
76712;SDS011;65640;43.154;25.658;2023-04-06T14:49:39;2.92;;;2.00;;
76712;SDS011;65640;43.154;25.658;2023-04-06T14:52:05;2.42;;;2.22;;
76712;SDS011;65640;43.154;25.658;2023-04-06T14:54:30;4.15;;;2.17;;
76712;SDS011;65640;43.154;25.658;2023-04-06T14:56:56;1.98;;;1.88;;
76712;SDS011;65640;43.154;25.658;2023-04-06T14:59:21;2.25;;;2.05;;